createdAt,value
2023-03-23T15:58:16.196Z,60.20
2023-03-23T16:00:45.745Z,60.40
2023-03-23T16:03:22.181Z,60.30
2023-03-23T16:05:52.459Z,60.40
2023-03-23T16:08:20.095Z,60.80
2023-03-23T16:10:47.954Z,60.70
2023-03-23T16:13:15.523Z,61.10
2023-03-23T16:15:43.234Z,61.00
2023-03-23T16:18:22.572Z,61.70
2023-03-23T16:20:50.483Z,61.70
2023-03-23T16:23:21.271Z,62.10
2023-03-23T16:25:49.170Z,62.30
2023-03-23T16:28:17.458Z,62.60
2023-03-23T16:30:45.599Z,62.80
2023-03-23T16:33:13.324Z,62.70
2023-03-23T16:35:41.173Z,63.10
2023-03-23T16:38:12.506Z,63.60
2023-03-23T16:40:39.838Z,63.60
2023-03-23T16:43:09.015Z,63.80
2023-03-23T16:45:44.164Z,64.90
2023-03-23T16:48:13.925Z,64.60
2023-03-23T16:50:42.536Z,64.50
2023-03-23T16:53:11.158Z,65.30
2023-03-23T16:55:40.871Z,65.40
2023-03-23T16:58:16.935Z,66.30
2023-03-23T17:00:48.475Z,66.40
2023-03-23T17:03:16.749Z,66.80
2023-03-23T17:05:45.298Z,67.00
2023-03-23T17:08:13.102Z,67.60
2023-03-23T17:10:41.976Z,68.50
2023-03-23T17:13:09.753Z,68.30
2023-03-23T17:15:44.502Z,68.60
2023-03-23T17:18:14.262Z,68.80
2023-03-23T17:20:41.895Z,69.00
2023-03-23T17:23:09.624Z,69.30
2023-03-23T17:25:37.496Z,69.50
2023-03-23T17:28:07.041Z,69.80
2023-03-23T17:30:36.455Z,69.90
2023-03-23T17:33:04.317Z,70.70
2023-03-23T17:35:31.965Z,70.10
2023-03-23T17:37:59.711Z,70.50
2023-03-23T17:40:27.460Z,70.60
2023-03-23T17:42:55.337Z,70.90
2023-03-23T17:45:23.472Z,71.20
2023-03-23T17:47:51.284Z,71.10
2023-03-23T17:50:19.296Z,70.90
2023-03-23T17:52:47.367Z,71.60
2023-03-23T17:55:15.939Z,71.90
2023-03-23T17:57:44.980Z,72.00
2023-03-23T18:00:16.621Z,72.80
2023-03-23T18:02:47.028Z,72.90
2023-03-23T18:05:41.562Z,73.20
2023-03-23T18:08:10.913Z,73.40
2023-03-23T18:10:40.449Z,73.50
2023-03-23T18:13:09.615Z,73.40
2023-03-23T18:15:37.947Z,73.50
2023-03-23T18:18:07.318Z,73.70
2023-03-23T18:20:35.082Z,73.80
2023-03-23T18:23:05.168Z,73.90
2023-03-23T18:25:33.788Z,74.20
2023-03-23T18:28:04.723Z,74.40
2023-03-23T18:30:37.179Z,74.50
2023-03-23T18:33:05.701Z,74.50
2023-03-23T18:35:34.459Z,74.70
2023-03-23T18:38:03.412Z,74.70
2023-03-23T18:40:32.362Z,74.80
2023-03-23T18:43:01.181Z,75.20
2023-03-23T18:45:29.875Z,75.50
2023-03-23T18:47:58.305Z,75.90
2023-03-23T18:50:29.126Z,75.90
2023-03-23T18:52:57.830Z,76.20
2023-03-23T18:55:27.688Z,77.10
2023-03-23T18:57:58.206Z,77.00
2023-03-23T19:00:30.503Z,77.70
2023-03-23T19:02:58.872Z,77.90
2023-03-23T19:05:28.655Z,78.20
2023-03-23T19:07:57.148Z,77.80
2023-03-23T19:10:25.933Z,78.60
2023-03-23T19:12:54.840Z,78.30
2023-03-23T19:15:27.825Z,78.20
2023-03-23T19:17:58.461Z,77.30
2023-03-23T19:23:01.819Z,77.10
2023-03-23T19:25:33.811Z,77.30
2023-03-23T19:29:03.344Z,77.10
2023-03-23T19:30:59.531Z,78.30
2023-03-23T19:33:28.201Z,77.80
2023-03-23T19:38:37.405Z,78.00
2023-03-23T19:41:06.687Z,78.20
2023-03-23T19:43:36.444Z,78.50
2023-03-23T19:46:11.659Z,78.50
2023-03-23T19:48:41.692Z,78.60
2023-03-23T19:51:12.701Z,78.60
2023-03-23T19:53:41.733Z,78.70
2023-03-23T19:56:19.334Z,78.70
2023-03-23T19:58:49.040Z,78.10
2023-03-23T20:01:18.713Z,78.70
2023-03-23T20:03:48.912Z,78.90
2023-03-23T20:06:19.436Z,78.80
2023-03-23T20:08:53.513Z,79.40
2023-03-23T20:11:21.640Z,79.40
2023-03-23T20:13:51.644Z,79.20
2023-03-23T20:16:21.837Z,79.10
2023-03-23T20:18:55.840Z,79.40
2023-03-23T20:21:25.846Z,79.40
2023-03-23T20:24:15.550Z,79.60
2023-03-23T20:26:45.010Z,79.90
2023-03-23T20:29:15.356Z,80.00
2023-03-23T20:31:47.177Z,80.10
2023-03-23T20:34:29.512Z,80.30
2023-03-23T20:36:59.797Z,80.30
2023-03-23T20:39:31.464Z,80.30
2023-03-23T20:42:03.736Z,80.90
2023-03-23T20:44:37.758Z,81.00
2023-03-23T20:47:10.193Z,81.60
2023-03-23T20:49:39.408Z,81.50
2023-03-23T20:52:27.396Z,81.20
2023-03-23T20:54:56.824Z,81.10
2023-03-23T20:57:26.853Z,81.50
2023-03-23T20:59:56.357Z,81.40
2023-03-23T21:02:29.041Z,81.40
2023-03-23T21:05:19.887Z,81.60
2023-03-23T21:07:51.216Z,81.90
2023-03-23T21:10:19.667Z,82.10
2023-03-23T21:12:51.485Z,82.10
2023-03-23T21:15:21.258Z,82.30
2023-03-23T21:17:53.017Z,82.50
2023-03-23T21:20:21.046Z,82.80
2023-03-23T21:22:48.988Z,83.00
2023-03-23T21:25:17.537Z,83.50
2023-03-23T21:27:44.919Z,83.50
2023-03-23T21:30:12.753Z,83.80
2023-03-23T21:32:40.946Z,84.00
2023-03-23T21:35:09.341Z,84.60
2023-03-23T21:37:42.741Z,84.70
2023-03-23T21:40:14.804Z,84.60
2023-03-23T21:42:43.349Z,84.90
2023-03-23T21:45:13.485Z,85.20
2023-03-23T21:47:43.899Z,85.40
2023-03-23T21:50:12.628Z,85.40
2023-03-23T21:52:43.497Z,85.40
2023-03-23T21:55:12.690Z,85.50
2023-03-23T21:57:43.711Z,86.00
2023-03-23T22:00:15.103Z,86.20
2023-03-23T22:02:42.640Z,86.50
2023-03-23T22:05:10.857Z,86.80
2023-03-23T22:07:39.297Z,86.80
2023-03-23T22:10:09.009Z,86.90
2023-03-23T22:12:37.641Z,87.10
2023-03-23T22:15:06.717Z,87.30
2023-03-23T22:17:37.987Z,87.20
2023-03-23T22:20:13.668Z,87.10
2023-03-23T22:22:41.282Z,86.70
2023-03-23T22:25:09.073Z,86.60
2023-03-23T22:27:36.522Z,87.30
2023-03-23T22:30:04.744Z,87.90
2023-03-23T22:32:34.791Z,88.20
2023-03-23T22:35:02.389Z,88.50
2023-03-23T22:37:32.208Z,88.40
2023-03-23T22:40:02.016Z,88.60
2023-03-23T22:42:29.723Z,88.60
2023-03-23T22:44:57.184Z,88.50
2023-03-23T22:47:24.519Z,89.00
2023-03-23T22:49:52.013Z,88.70
2023-03-23T22:52:19.461Z,89.00
2023-03-23T22:54:48.209Z,88.80
2023-03-23T22:57:15.643Z,88.70
2023-03-23T22:59:43.340Z,88.90
2023-03-23T23:02:10.615Z,89.30
2023-03-23T23:04:38.056Z,89.60
2023-03-23T23:07:13.523Z,90.00
2023-03-23T23:09:46.903Z,90.10
2023-03-23T23:12:15.077Z,90.10
2023-03-23T23:14:45.636Z,90.30
2023-03-23T23:17:12.990Z,90.40
2023-03-23T23:19:40.494Z,90.60
2023-03-23T23:22:18.416Z,90.60
2023-03-23T23:24:46.887Z,90.60
2023-03-23T23:27:14.702Z,90.40
2023-03-23T23:29:42.208Z,90.50
2023-03-23T23:32:09.541Z,90.40
2023-03-23T23:34:36.959Z,90.60
2023-03-23T23:37:04.276Z,90.50
2023-03-23T23:39:31.674Z,90.70
2023-03-23T23:41:59.038Z,90.80
2023-03-23T23:44:26.497Z,90.70
2023-03-23T23:46:56.324Z,90.90
2023-03-23T23:49:28.894Z,90.90
2023-03-23T23:51:56.737Z,91.20
2023-03-23T23:54:30.403Z,91.40
2023-03-23T23:56:59.681Z,91.50
2023-03-23T23:59:30.755Z,91.50
